YBBN/BNE METAR and TAF weather

Enter ICAO airport designator
Station Type Date Time Source
YBBN METAR 2019/06/17 06:30 UTC NOAA

YBBN 170630Z 28007KT CAVOK 20/03 Q1015 NOSIG


Station Type Date Time Source
YBBN Decoded METAR 2019/06/17 06:30 UTC NOAA

Brisbane Airport M. O, Australia (YBBN) 27-23S 153-06E 5M
Jun 17, 2019 - 02:30 AM EDT / 2019.06.17 0630 UTC
Wind: from the W (280 degrees) at 8 MPH (7 KT):0
Visibility: greater than 7 mile(s):0
Temperature: 68 F (20 C)
Dew Point: 37 F (3 C)
Relative Humidity: 32%
Pressure (altimeter): 29.97 in. Hg (1015 hPa)
ob: YBBN 170630Z 28007KT CAVOK 20/03 Q1015 NOSIG
cycle: 6

Station Type Date Time Source
YBBN TAF 2019/06/17 06:35 UTC NOAA

TAF YBBN 170521Z 1706/1812 25012KT CAVOK
FM170800 22005KT CAVOK
FM171800 24006KT 9999 FEW035
FM180300 07007KT 9999 FEW045
FM180800 VRB04KT CAVOK

Example: see airport list